EBBR/BRU METAR and TAF weather

Enter ICAO airport designator
Station Type Date Time Source
EBBR METAR 2022/05/24 10:50 UTC NOAA

EBBR 241050Z 22014KT 9999 VCSH SCT032TCU 15/08 Q1007 TEMPO 25015G25KT 4000 SHRA


Station Type Date Time Source
EBBR Decoded METAR 2022/05/24 10:50 UTC NOAA

Bruxelles National, Belgium (EBBR) 50-54N 004-32E 58M
May 24, 2022 - 06:50 AM EDT / 2022.05.24 1050 UTC
Wind: from the SW (220 degrees) at 16 MPH (14 KT):0
Visibility: greater than 7 mile(s):0
Sky conditions: partly cloudy
Weather: showers in the vicinity; Towering cumulus clouds observed
Temperature: 59 F (15 C)
Dew Point: 46 F (8 C)
Relative Humidity: 62%
Pressure (altimeter): 29.74 in. Hg (1007 hPa)
ob: EBBR 241050Z 22014KT 9999 VCSH SCT032TCU 15/08 Q1007 TEMPO 25015G25KT 4000 SHRA
cycle: 11

Station Type Date Time Source
EBBR TAF 2022/05/24 06:28 UTC NOAA

TAF EBBR 240520Z 2406/2512 23010KT 9999 FEW020 PROB40
TEMPO 2406/2418 24018G30KT 4000 SHRA BKN014CB

Example: see airport list